createdAt,value
2022-12-11T00:02:22.085Z,24.70
2022-12-11T00:04:48.860Z,22.10
2022-12-11T00:07:15.624Z,23.13
2022-12-11T00:09:42.421Z,24.00
2022-12-11T00:12:09.202Z,23.42
2022-12-11T00:14:36.201Z,20.42
2022-12-11T00:17:04.665Z,23.00
2022-12-11T00:19:32.104Z,24.42
2022-12-11T00:21:58.890Z,20.98
2022-12-11T00:24:27.489Z,25.17
2022-12-11T00:26:54.236Z,26.30
2022-12-11T00:29:20.949Z,26.45
2022-12-11T00:31:47.731Z,27.00
2022-12-11T00:34:14.466Z,23.33
2022-12-11T00:36:41.262Z,24.88
2022-12-11T00:39:08.205Z,27.70
2022-12-11T00:41:34.964Z,27.55
2022-12-11T00:44:01.915Z,26.38
2022-12-11T00:46:28.709Z,27.95
2022-12-11T00:48:55.511Z,25.15
2022-12-11T00:51:22.317Z,26.65
2022-12-11T00:53:49.073Z,25.58
2022-12-11T00:56:21.880Z,27.95
2022-12-11T00:58:49.522Z,28.13
2022-12-11T01:01:26.945Z,23.63
2022-12-11T01:03:54.605Z,28.40
2022-12-11T01:06:24.348Z,25.60
2022-12-11T01:09:10.647Z,24.60
2022-12-11T01:11:37.772Z,24.27
2022-12-11T01:14:04.768Z,24.67
2022-12-11T01:16:31.678Z,26.05
2022-12-11T01:18:59.329Z,27.23
2022-12-11T01:21:28.078Z,26.23
2022-12-11T01:23:54.811Z,28.38
2022-12-11T01:26:22.451Z,24.90
2022-12-11T01:28:52.661Z,22.27
2022-12-11T01:31:22.303Z,24.25
2022-12-11T01:33:49.427Z,27.55
2022-12-11T01:36:19.007Z,24.77
2022-12-11T01:38:47.652Z,24.65
2022-12-11T01:41:15.106Z,28.48
2022-12-11T01:44:02.912Z,26.27
2022-12-11T01:46:32.460Z,29.63
2022-12-11T01:49:01.638Z,24.95
2022-12-11T01:51:33.797Z,27.55
2022-12-11T01:54:07.003Z,25.92
2022-12-11T01:56:38.127Z,25.35
2022-12-11T01:59:07.575Z,27.02
2022-12-11T02:02:15.111Z,27.40
2022-12-11T02:04:44.142Z,24.95
2022-12-11T02:07:11.453Z,26.73
2022-12-11T02:09:41.453Z,25.05
2022-12-11T02:12:36.817Z,26.60
2022-12-11T02:15:19.201Z,29.27
2022-12-11T02:18:01.120Z,28.05
2022-12-11T02:20:49.036Z,27.88
2022-12-11T02:23:18.853Z,29.17
2022-12-11T02:26:08.556Z,27.17
2022-12-11T02:28:44.141Z,28.20
2022-12-11T02:31:24.018Z,29.90
2022-12-11T02:34:12.504Z,30.58
2022-12-11T02:36:43.587Z,26.02
2022-12-11T02:39:13.651Z,26.40
2022-12-11T02:41:46.751Z,26.10
2022-12-11T02:44:16.256Z,27.40
2022-12-11T02:46:44.689Z,29.67
2022-12-11T02:49:13.833Z,29.00
2022-12-11T02:51:42.475Z,32.08
2022-12-11T02:54:13.936Z,30.55
2022-12-11T02:56:47.907Z,25.60
2022-12-11T02:59:41.382Z,28.70
2022-12-11T03:02:08.417Z,31.15
2022-12-11T03:04:36.627Z,31.85
2022-12-11T03:07:12.338Z,29.60
2022-12-11T03:09:41.032Z,27.67
2022-12-11T03:12:10.914Z,33.28
2022-12-11T03:14:38.652Z,33.50
2022-12-11T03:17:19.251Z,27.60
2022-12-11T03:20:08.462Z,31.02
2022-12-11T03:22:42.920Z,28.63
2022-12-11T03:25:26.038Z,29.52
2022-12-11T03:28:16.364Z,29.27
2022-12-11T03:30:45.435Z,29.90
2022-12-11T03:33:18.259Z,28.48
2022-12-11T03:35:51.624Z,28.17
2022-12-11T03:41:02.596Z,33.67
2022-12-11T03:43:32.113Z,33.95
2022-12-11T03:46:00.778Z,30.67
2022-12-11T03:48:33.539Z,33.08
2022-12-11T03:51:03.869Z,30.00
2022-12-11T03:53:31.366Z,33.85
2022-12-11T03:55:59.305Z,35.00
2022-12-11T03:58:26.238Z,32.47
2022-12-11T04:00:53.127Z,31.92
2022-12-11T04:03:19.979Z,36.08
2022-12-11T04:05:49.642Z,36.55
2022-12-11T04:08:17.591Z,38.55
2022-12-11T04:10:45.049Z,38.13
2022-12-11T04:13:12.230Z,36.58
2022-12-11T04:15:39.470Z,33.53
2022-12-11T04:18:26.496Z,36.15
2022-12-11T04:21:15.343Z,36.92
2022-12-11T04:24:00.858Z,40.15
2022-12-11T04:26:28.323Z,37.10
2022-12-11T04:28:55.066Z,36.05
2022-12-11T04:31:23.250Z,34.50
2022-12-11T04:33:50.313Z,38.92
2022-12-11T04:36:17.259Z,35.55
2022-12-11T04:38:44.019Z,38.28
2022-12-11T04:41:13.173Z,38.60
2022-12-11T04:43:40.565Z,35.33
2022-12-11T04:46:10.837Z,39.38
2022-12-11T04:48:39.082Z,40.35
2022-12-11T04:51:06.891Z,35.60
2022-12-11T04:53:34.101Z,38.92
2022-12-11T04:56:00.834Z,34.13
2022-12-11T04:58:28.366Z,35.88
2022-12-11T05:00:55.086Z,36.78
2022-12-11T05:03:21.801Z,36.67
2022-12-11T05:05:53.611Z,34.50
2022-12-11T05:08:23.369Z,32.20
2022-12-11T05:11:05.555Z,35.47
2022-12-11T05:13:34.164Z,30.92
2022-12-11T05:16:03.254Z,32.45
2022-12-11T05:18:30.010Z,32.80
2022-12-11T05:20:57.309Z,27.67
2022-12-11T05:23:24.256Z,28.20
2022-12-11T05:25:56.064Z,31.85
2022-12-11T05:28:24.930Z,32.95
2022-12-11T05:31:03.228Z,31.80
2022-12-11T05:33:30.195Z,29.85
2022-12-11T05:35:57.981Z,31.10
2022-12-11T05:38:25.447Z,33.88
2022-12-11T05:41:09.117Z,31.55
2022-12-11T05:43:37.159Z,29.10
2022-12-11T05:46:11.444Z,26.20
2022-12-11T05:48:38.829Z,28.23
2022-12-11T05:51:08.480Z,29.55
2022-12-11T05:53:36.999Z,32.70
2022-12-11T05:56:15.778Z,33.95
2022-12-11T05:58:43.913Z,29.67
2022-12-11T06:01:16.223Z,31.13
2022-12-11T06:03:43.064Z,25.23
2022-12-11T06:06:10.002Z,32.05
2022-12-11T06:08:36.925Z,35.00
2022-12-11T06:11:04.359Z,30.27
2022-12-11T06:13:31.215Z,30.67
2022-12-11T06:16:05.750Z,30.65
2022-12-11T06:18:37.899Z,34.28
2022-12-11T06:21:13.494Z,31.88
2022-12-11T06:23:41.514Z,33.42
2022-12-11T06:26:09.317Z,33.05
2022-12-11T06:28:36.204Z,30.30
2022-12-11T06:31:03.465Z,34.45
2022-12-11T06:33:30.913Z,29.38
2022-12-11T06:36:01.599Z,32.70
2022-12-11T06:38:28.310Z,35.30
2022-12-11T06:41:04.734Z,39.85
2022-12-11T06:43:32.752Z,33.28
2022-12-11T06:46:03.785Z,33.20
2022-12-11T06:48:31.176Z,33.30
2022-12-11T06:50:58.015Z,35.30
2022-12-11T06:53:24.687Z,34.20
2022-12-11T06:55:51.393Z,33.30
2022-12-11T06:58:18.125Z,37.17
2022-12-11T07:00:44.911Z,32.10
2022-12-11T07:03:13.702Z,29.50
2022-12-11T07:05:40.598Z,30.58
2022-12-11T07:08:07.655Z,35.78
2022-12-11T07:10:34.422Z,31.80
2022-12-11T07:13:01.210Z,33.88
2022-12-11T07:15:27.977Z,31.42
2022-12-11T07:17:54.812Z,31.85
2022-12-11T07:20:21.716Z,31.15
2022-12-11T07:22:48.443Z,28.52
2022-12-11T07:25:15.402Z,27.52
2022-12-11T07:27:42.170Z,26.95
2022-12-11T07:30:09.747Z,27.77
2022-12-11T07:32:36.588Z,24.45
2022-12-11T07:35:04.046Z,24.75
2022-12-11T07:37:31.155Z,23.38
2022-12-11T07:39:57.901Z,22.40
2022-12-11T07:42:24.585Z,25.10
2022-12-11T07:44:51.338Z,23.10
2022-12-11T07:47:18.085Z,21.50
2022-12-11T07:49:49.272Z,21.27
2022-12-11T07:52:16.019Z,20.58
2022-12-11T07:54:42.821Z,24.45
2022-12-11T07:57:13.875Z,28.10
2022-12-11T07:59:41.934Z,24.13
2022-12-11T08:02:11.894Z,27.13
2022-12-11T08:04:38.984Z,26.30
2022-12-11T08:07:07.955Z,23.02
2022-12-11T08:09:35.019Z,27.20
2022-12-11T08:12:01.915Z,26.70
2022-12-11T08:14:28.665Z,25.05
2022-12-11T08:16:57.477Z,27.75
2022-12-11T08:19:24.381Z,23.00
2022-12-11T08:21:51.091Z,20.80
2022-12-11T08:24:21.001Z,22.13
2022-12-11T08:26:48.546Z,19.23
2022-12-11T08:29:15.437Z,21.30
2022-12-11T08:31:42.756Z,19.13
2022-12-11T08:34:13.776Z,20.85
2022-12-11T08:36:41.492Z,16.00
2022-12-11T08:39:08.361Z,18.77
2022-12-11T08:41:35.171Z,19.65
2022-12-11T08:44:01.941Z,18.70
2022-12-11T08:46:30.811Z,21.65
2022-12-11T08:48:58.394Z,19.65
2022-12-11T08:51:27.387Z,19.55
2022-12-11T08:53:58.997Z,20.65
2022-12-11T08:56:26.645Z,19.33
2022-12-11T08:58:53.993Z,21.73
2022-12-11T09:01:25.985Z,20.10
2022-12-11T09:03:54.535Z,19.65
2022-12-11T09:06:24.250Z,19.05
2022-12-11T09:08:53.504Z,19.85
2022-12-11T09:11:25.888Z,20.35
2022-12-11T09:13:53.171Z,21.23
2022-12-11T09:16:21.907Z,20.55
2022-12-11T09:18:50.461Z,21.10
2022-12-11T09:21:20.296Z,18.88
2022-12-11T09:23:47.301Z,19.60
2022-12-11T09:26:18.013Z,18.92
2022-12-11T09:28:46.865Z,22.85
2022-12-11T09:31:17.839Z,19.77
2022-12-11T09:33:44.942Z,17.95
2022-12-11T09:36:12.562Z,18.83
2022-12-11T09:38:39.723Z,19.23
2022-12-11T09:41:21.735Z,19.58
2022-12-11T09:44:00.359Z,19.13
2022-12-11T09:46:33.584Z,17.08
2022-12-11T09:49:02.857Z,19.17
2022-12-11T09:51:43.797Z,19.25
2022-12-11T09:54:14.260Z,21.17
2022-12-11T09:56:50.719Z,20.17
2022-12-11T09:59:29.106Z,21.73
2022-12-11T10:02:38.258Z,19.92
2022-12-11T10:05:40.313Z,22.58
2022-12-11T10:08:17.522Z,21.20
2022-12-11T10:11:01.476Z,22.33
2022-12-11T10:14:00.468Z,22.08
2022-12-11T10:16:39.900Z,18.63
2022-12-11T10:19:13.481Z,18.08
2022-12-11T10:21:42.543Z,23.50
2022-12-11T10:27:31.477Z,19.92
2022-12-11T10:30:13.355Z,19.15
2022-12-11T10:32:55.268Z,20.98
2022-12-11T10:35:37.014Z,20.02
2022-12-11T10:38:15.338Z,19.63
2022-12-11T10:40:45.565Z,21.70
2022-12-11T10:43:12.745Z,19.65
2022-12-11T10:45:39.792Z,20.70
2022-12-11T10:48:11.645Z,19.50
2022-12-11T10:50:39.072Z,19.38
2022-12-11T10:53:06.259Z,19.15
2022-12-11T10:55:45.632Z,19.25
2022-12-11T10:58:22.444Z,19.83
2022-12-11T11:01:19.799Z,18.98
2022-12-11T11:04:24.157Z,18.85
2022-12-11T11:07:11.133Z,21.25
2022-12-11T11:09:39.849Z,20.75
2022-12-11T11:12:17.789Z,19.10
2022-12-11T11:14:44.496Z,19.08
2022-12-11T11:17:15.742Z,21.10
2022-12-11T11:19:46.065Z,22.35
2022-12-11T11:22:19.574Z,22.17
2022-12-11T11:24:53.996Z,22.45
2022-12-11T11:27:29.630Z,19.85
2022-12-11T11:30:00.526Z,19.33
2022-12-11T11:32:32.183Z,21.60
2022-12-11T11:35:14.258Z,22.15
2022-12-11T11:37:47.160Z,23.63
2022-12-11T11:40:24.404Z,20.53
2022-12-11T11:43:32.019Z,19.92
2022-12-11T11:46:11.244Z,18.83
2022-12-11T11:48:49.985Z,18.02
2022-12-11T11:51:27.181Z,19.33
2022-12-11T11:53:58.404Z,18.08
2022-12-11T11:56:43.804Z,19.02
2022-12-11T11:59:35.098Z,18.48
2022-12-11T12:02:01.937Z,15.27
2022-12-11T12:04:34.208Z,19.10
2022-12-11T12:07:07.073Z,17.08
2022-12-11T12:09:52.518Z,20.98
2022-12-11T12:12:57.368Z,17.15
2022-12-11T12:15:51.581Z,17.27
2022-12-11T12:18:37.125Z,18.38
2022-12-11T12:21:17.234Z,15.18
2022-12-11T12:24:14.406Z,16.90
2022-12-11T12:26:53.667Z,15.43
2022-12-11T12:29:23.273Z,19.33
2022-12-11T12:32:14.166Z,18.55
2022-12-11T12:35:14.152Z,17.92
2022-12-11T12:38:16.254Z,14.70
2022-12-11T12:40:57.760Z,17.15
2022-12-11T12:43:36.580Z,16.35
2022-12-11T12:46:26.078Z,17.45
2022-12-11T12:48:55.495Z,13.88
2022-12-11T12:51:26.591Z,16.58
2022-12-11T12:54:10.523Z,10.75
2022-12-11T12:56:40.704Z,13.90
2022-12-11T12:59:26.725Z,13.15
2022-12-11T13:02:02.365Z,13.68
2022-12-11T13:04:54.887Z,12.40
2022-12-11T13:07:30.218Z,13.05
2022-12-11T13:10:44.793Z,12.85
2022-12-11T13:13:35.215Z,12.60
2022-12-11T13:16:15.296Z,11.85
2022-12-11T13:18:43.873Z,11.93
2022-12-11T13:21:41.081Z,12.40
2022-12-11T13:24:26.396Z,11.85
2022-12-11T13:26:53.634Z,10.60
2022-12-11T13:29:38.890Z,12.95
2022-12-11T13:32:11.392Z,13.18
2022-12-11T13:34:41.324Z,12.50
2022-12-11T13:37:21.996Z,12.02
2022-12-11T13:39:48.929Z,12.43
2022-12-11T13:42:33.494Z,12.55
2022-12-11T13:45:01.692Z,14.85
2022-12-11T13:47:32.189Z,11.23
2022-12-11T13:50:33.166Z,12.85
2022-12-11T13:53:01.941Z,13.95
2022-12-11T13:55:37.688Z,13.15
2022-12-11T13:58:18.322Z,12.82
2022-12-11T14:01:00.658Z,12.68
2022-12-11T14:03:27.817Z,13.55
2022-12-11T14:05:54.952Z,18.40
2022-12-11T14:08:27.363Z,12.23
2022-12-11T14:10:54.654Z,11.30
2022-12-11T14:13:31.553Z,11.80
2022-12-11T14:15:58.500Z,11.23
2022-12-11T14:18:29.401Z,13.43
2022-12-11T14:21:01.818Z,11.95
2022-12-11T14:23:38.949Z,11.37
2022-12-11T14:26:19.602Z,12.93
2022-12-11T14:28:46.658Z,12.18
2022-12-11T14:31:18.697Z,11.73
2022-12-11T14:33:52.094Z,11.73
2022-12-11T14:36:19.720Z,12.57
2022-12-11T14:39:26.145Z,11.88
2022-12-11T14:42:00.020Z,11.57
2022-12-11T14:44:30.401Z,11.80
2022-12-11T14:47:02.525Z,15.23
2022-12-11T14:49:45.755Z,13.52
2022-12-11T14:52:21.635Z,12.85
2022-12-11T14:54:58.281Z,16.42
2022-12-11T14:57:28.803Z,13.07
2022-12-11T14:59:56.464Z,12.40
2022-12-11T15:02:32.535Z,14.98
2022-12-11T15:05:06.438Z,13.77
2022-12-11T15:07:34.036Z,13.38
2022-12-11T15:10:00.877Z,13.30
2022-12-11T15:12:27.698Z,13.80
2022-12-11T15:15:00.985Z,13.73
2022-12-11T15:17:34.726Z,13.63
2022-12-11T15:20:11.641Z,12.52
2022-12-11T15:22:43.329Z,12.93
2022-12-11T15:25:19.915Z,14.50
2022-12-11T15:27:49.951Z,15.70
2022-12-11T15:30:20.351Z,13.75
2022-12-11T15:32:49.411Z,13.50
2022-12-11T15:35:25.550Z,15.18
2022-12-11T15:37:57.553Z,14.68
2022-12-11T15:40:25.221Z,15.02
2022-12-11T15:42:52.896Z,12.55
2022-12-11T15:45:22.071Z,15.32
2022-12-11T15:47:50.101Z,13.88
2022-12-11T15:50:21.863Z,14.68
2022-12-11T15:52:49.475Z,13.85
2022-12-11T15:55:16.890Z,12.30
2022-12-11T15:57:47.847Z,13.65
2022-12-11T16:00:20.853Z,12.65
2022-12-11T16:02:48.304Z,13.93
2022-12-11T16:05:15.964Z,11.85
2022-12-11T16:07:43.082Z,13.73
2022-12-11T16:10:17.632Z,15.70
2022-12-11T16:12:47.703Z,11.60
2022-12-11T16:15:21.692Z,12.02
2022-12-11T16:17:50.111Z,12.75
2022-12-11T16:20:17.673Z,15.55
2022-12-11T16:22:44.744Z,10.90
2022-12-11T16:25:11.910Z,15.20
2022-12-11T16:27:39.656Z,12.60
2022-12-11T16:30:07.017Z,13.55
2022-12-11T16:32:33.831Z,13.48
2022-12-11T16:35:01.252Z,14.40
2022-12-11T16:37:28.296Z,15.48
2022-12-11T16:39:55.184Z,13.98
2022-12-11T16:42:22.010Z,13.52
2022-12-11T16:44:49.226Z,13.93
2022-12-11T16:47:16.392Z,13.00
2022-12-11T16:49:43.571Z,13.70
2022-12-11T16:52:11.649Z,14.05
2022-12-11T16:54:40.538Z,14.73
2022-12-11T16:57:07.414Z,13.82
2022-12-11T16:59:37.426Z,12.38
2022-12-11T17:02:04.747Z,15.25
2022-12-11T17:04:31.510Z,18.70
2022-12-11T17:06:58.488Z,14.93
2022-12-11T17:09:25.658Z,12.60
2022-12-11T17:11:53.512Z,13.07
2022-12-11T17:14:20.506Z,16.73
2022-12-11T17:16:48.760Z,16.30
2022-12-11T17:19:16.515Z,19.77
2022-12-11T17:21:47.087Z,12.07
2022-12-11T17:24:18.541Z,14.73
2022-12-11T17:26:45.368Z,12.98
2022-12-11T17:29:13.051Z,13.68
2022-12-11T17:31:39.764Z,13.15
2022-12-11T17:34:06.601Z,13.40
2022-12-11T17:36:33.733Z,14.38
2022-12-11T17:39:00.587Z,14.48
2022-12-11T17:41:27.429Z,12.73
2022-12-11T17:43:56.577Z,15.07
2022-12-11T17:46:23.414Z,17.20
2022-12-11T17:48:50.518Z,15.93
2022-12-11T17:51:22.073Z,14.30
2022-12-11T17:53:49.259Z,15.27
2022-12-11T17:56:16.777Z,14.20
2022-12-11T17:58:43.932Z,16.15
2022-12-11T18:01:13.282Z,16.42
2022-12-11T18:03:41.092Z,14.43
2022-12-11T18:06:11.044Z,14.43
2022-12-11T18:08:38.096Z,14.40
2022-12-11T18:11:13.737Z,15.60
2022-12-11T18:13:41.428Z,16.88
2022-12-11T18:16:17.454Z,14.25
2022-12-11T18:18:46.373Z,13.90
2022-12-11T18:21:15.756Z,15.13
2022-12-11T18:23:42.737Z,12.85
2022-12-11T18:26:11.024Z,15.85
2022-12-11T18:28:38.081Z,15.73
2022-12-11T18:31:05.106Z,14.40
2022-12-11T18:33:35.740Z,15.15
2022-12-11T18:36:02.917Z,16.95
2022-12-11T18:38:31.583Z,18.23
2022-12-11T18:41:04.608Z,13.57
2022-12-11T18:45:59.047Z,16.00
2022-12-11T18:48:25.889Z,15.68
2022-12-11T18:50:53.159Z,13.70
2022-12-11T18:53:20.280Z,14.98
2022-12-11T18:55:48.589Z,13.30
2022-12-11T18:58:17.668Z,14.02
2022-12-11T19:00:46.183Z,16.10
2022-12-11T19:03:14.137Z,17.75
2022-12-11T19:05:42.788Z,13.82
2022-12-11T19:08:11.925Z,13.43
2022-12-11T19:10:46.654Z,13.20
2022-12-11T19:13:14.577Z,13.13
2022-12-11T19:15:42.805Z,14.65
2022-12-11T19:18:10.763Z,15.02
2022-12-11T19:20:56.725Z,16.13
2022-12-11T19:23:25.244Z,13.25
2022-12-11T19:25:52.066Z,12.60
2022-12-11T19:28:18.970Z,14.82
2022-12-11T19:30:48.795Z,13.38
2022-12-11T19:33:16.609Z,14.43
2022-12-11T19:35:44.591Z,16.30
2022-12-11T19:38:13.048Z,14.98
2022-12-11T19:40:45.277Z,16.05
2022-12-11T19:43:12.216Z,15.05
2022-12-11T19:45:41.851Z,16.15
2022-12-11T19:48:08.701Z,15.55
2022-12-11T19:50:36.573Z,15.23
2022-12-11T19:53:03.823Z,14.00
2022-12-11T19:55:30.646Z,15.32
2022-12-11T19:57:57.729Z,15.85
2022-12-11T20:00:26.213Z,14.60
2022-12-11T20:02:53.059Z,14.93
2022-12-11T20:05:20.094Z,16.42
2022-12-11T20:07:47.040Z,16.17
2022-12-11T20:10:14.112Z,16.67
2022-12-11T20:12:40.997Z,18.05
2022-12-11T20:15:08.155Z,15.65
2022-12-11T20:17:36.916Z,15.18
2022-12-11T20:20:04.361Z,15.07
2022-12-11T20:22:31.365Z,18.45
2022-12-11T20:24:58.401Z,18.88
2022-12-11T20:27:26.331Z,17.48
2022-12-11T20:29:53.541Z,17.08
2022-12-11T20:32:20.309Z,18.75
2022-12-11T20:34:47.220Z,18.25
2022-12-11T20:37:13.950Z,16.83
2022-12-11T20:39:40.757Z,18.75
2022-12-11T20:42:10.300Z,17.75
2022-12-11T20:44:37.386Z,20.17
2022-12-11T20:47:04.546Z,17.20
2022-12-11T20:49:31.715Z,18.33
2022-12-11T20:51:59.924Z,18.25
2022-12-11T20:54:27.196Z,19.08
2022-12-11T20:56:55.165Z,20.17
2022-12-11T20:59:22.367Z,16.45
2022-12-11T21:01:49.618Z,17.92
2022-12-11T21:04:16.731Z,17.45
2022-12-11T21:06:44.018Z,21.33
2022-12-11T21:09:14.752Z,21.30
2022-12-11T21:11:41.766Z,20.33
2022-12-11T21:14:08.588Z,20.40
2022-12-11T21:16:37.135Z,19.60
2022-12-11T21:19:05.903Z,19.88
2022-12-11T21:21:34.558Z,22.63
2022-12-11T21:24:01.445Z,19.27
2022-12-11T21:26:30.269Z,18.17
2022-12-11T21:28:57.025Z,20.30
2022-12-11T21:31:23.807Z,20.65
2022-12-11T21:33:50.865Z,21.15
2022-12-11T21:36:18.145Z,19.98
2022-12-11T21:38:46.382Z,19.95
2022-12-11T21:41:16.454Z,19.13
2022-12-11T21:44:32.933Z,17.60
2022-12-11T21:46:31.147Z,19.35
2022-12-11T21:49:00.196Z,20.55
2022-12-11T21:51:36.213Z,18.27
2022-12-11T21:54:06.831Z,18.20
2022-12-11T21:56:34.441Z,21.13
2022-12-11T21:59:01.931Z,23.25
2022-12-11T22:01:33.481Z,21.23
2022-12-11T22:04:01.056Z,21.90
2022-12-11T22:06:31.634Z,27.02
2022-12-11T22:08:58.530Z,20.33
2022-12-11T22:11:28.351Z,22.85
2022-12-11T22:13:55.476Z,17.65
2022-12-11T22:16:22.527Z,21.05
2022-12-11T22:18:49.476Z,23.60
2022-12-11T22:21:16.441Z,22.70
2022-12-11T22:23:44.716Z,18.85
2022-12-11T22:26:24.139Z,23.30
2022-12-11T22:28:51.888Z,19.73
2022-12-11T22:31:20.728Z,20.80
2022-12-11T22:33:53.894Z,22.30
2022-12-11T22:36:21.355Z,21.13
2022-12-11T22:38:48.446Z,22.73
2022-12-11T22:41:41.898Z,20.30
2022-12-11T22:44:14.945Z,22.35
2022-12-11T22:46:45.430Z,21.25
2022-12-11T22:49:21.444Z,22.92
2022-12-11T22:51:50.876Z,25.48
2022-12-11T22:54:24.453Z,21.33
2022-12-11T22:56:52.463Z,22.08
2022-12-11T22:59:19.266Z,19.02
2022-12-11T23:01:46.245Z,21.17
2022-12-11T23:04:13.161Z,22.20
2022-12-11T23:06:40.153Z,23.30
2022-12-11T23:09:09.911Z,21.13
2022-12-11T23:11:38.735Z,21.05
2022-12-11T23:14:09.048Z,22.73
2022-12-11T23:16:37.056Z,19.88
2022-12-11T23:19:04.737Z,20.83
2022-12-11T23:21:32.025Z,20.80
2022-12-11T23:24:01.688Z,20.98
2022-12-11T23:26:30.006Z,15.90
2022-12-11T23:28:58.447Z,17.98
2022-12-11T23:31:26.718Z,18.25
2022-12-11T23:33:54.718Z,17.27
2022-12-11T23:36:22.011Z,17.83
2022-12-11T23:38:54.617Z,16.55
2022-12-11T23:41:22.452Z,18.13
2022-12-11T23:43:49.247Z,17.73
2022-12-11T23:46:19.124Z,18.58
2022-12-11T23:48:48.678Z,18.65
2022-12-11T23:51:17.782Z,17.80
2022-12-11T23:53:44.938Z,15.77
2022-12-11T23:56:15.714Z,17.67
2022-12-11T23:58:42.684Z,22.17
